createdAt,value
2018-01-02T00:00:13.861Z,4.73
2018-01-02T00:02:42.021Z,2.67
2018-01-02T00:05:11.002Z,3.80
2018-01-02T00:07:39.938Z,3.13
2018-01-02T00:10:08.104Z,2.93
2018-01-02T00:12:36.281Z,4.27
2018-01-02T00:15:04.452Z,7.37
2018-01-02T00:17:32.602Z,3.53
2018-01-02T00:20:01.562Z,1.60
2018-01-02T00:22:29.702Z,3.87
2018-01-02T00:24:57.891Z,4.93
2018-01-02T00:27:26.035Z,2.70
2018-01-02T00:29:54.957Z,5.90
2018-01-02T00:32:23.890Z,2.20
2018-01-02T00:34:52.066Z,2.50
2018-01-02T00:37:20.992Z,1.73
2018-01-02T00:39:49.223Z,6.90
2018-01-02T00:42:17.362Z,2.40
2018-01-02T00:44:45.538Z,1.43
2018-01-02T00:47:13.679Z,1.93
2018-01-02T00:49:42.605Z,1.70
2018-01-02T00:52:10.736Z,1.67
2018-01-02T00:54:39.669Z,2.40
2018-01-02T00:57:07.833Z,2.10
2018-01-02T00:59:36.006Z,2.43
2018-01-02T01:02:04.131Z,1.20
2018-01-02T01:04:32.309Z,10.60
2018-01-02T01:07:01.225Z,2.73
2018-01-02T01:09:30.276Z,1.53
2018-01-02T01:11:59.217Z,1.40
2018-01-02T01:14:27.391Z,5.93
2018-01-02T01:16:55.564Z,1.40
2018-01-02T01:19:23.720Z,1.83
2018-01-02T01:21:51.894Z,1.43
2018-01-02T01:24:20.838Z,1.20
2018-01-02T01:26:48.994Z,2.13
2018-01-02T01:29:17.187Z,1.43
2018-01-02T01:31:45.324Z,1.23
2018-01-02T01:34:13.488Z,2.03
2018-01-02T01:36:42.406Z,1.20
2018-01-02T01:39:10.603Z,1.63
2018-01-02T01:41:38.745Z,1.97
2018-01-02T01:44:06.892Z,1.33
2018-01-02T01:46:35.828Z,2.13
2018-01-02T01:49:03.979Z,2.03
2018-01-02T01:51:32.160Z,1.20
2018-01-02T01:54:00.312Z,2.00
2018-01-02T01:56:29.817Z,2.20
2018-01-02T01:58:58.742Z,2.07
2018-01-02T02:01:26.934Z,1.30
2018-01-02T02:03:55.080Z,3.17
2018-01-02T02:06:23.277Z,2.80
2018-01-02T02:08:51.437Z,3.70
2018-01-02T02:11:19.622Z,2.10
2018-01-02T02:13:47.762Z,1.80
2018-01-02T02:16:16.709Z,2.40
2018-01-02T02:18:44.842Z,2.47
2018-01-02T02:21:13.014Z,3.70
2018-01-02T02:23:41.161Z,1.80
2018-01-02T02:26:10.606Z,5.27
2018-01-02T02:28:38.762Z,5.53
2018-01-02T02:31:06.921Z,4.80
2018-01-02T02:33:35.825Z,2.50
2018-01-02T02:36:04.324Z,3.30
2018-01-02T02:38:32.517Z,2.13
2018-01-02T02:41:07.428Z,7.70
2018-01-02T02:43:35.605Z,2.90
2018-01-02T02:46:03.818Z,2.30
2018-01-02T02:48:32.768Z,3.30
2018-01-02T02:51:00.946Z,2.50
2018-01-02T02:53:29.202Z,2.73
2018-01-02T02:55:57.421Z,2.60
2018-01-02T02:58:25.602Z,3.50
2018-01-02T03:00:53.780Z,3.60
2018-01-02T03:03:21.933Z,3.07
2018-01-02T03:05:50.088Z,3.70
2018-01-02T03:08:18.249Z,6.60
2018-01-02T03:10:46.455Z,3.60
2018-01-02T03:13:14.602Z,1.70
2018-01-02T03:15:42.777Z,2.20
2018-01-02T03:18:10.920Z,2.53
2018-01-02T03:20:39.882Z,2.70
2018-01-02T03:23:08.026Z,2.47
2018-01-02T03:25:36.198Z,1.90
2018-01-02T03:28:04.519Z,1.77
2018-01-02T03:30:32.682Z,2.57
2018-01-02T03:33:00.842Z,2.37
2018-01-02T03:35:29.022Z,2.37
2018-01-02T03:37:57.616Z,2.37
2018-01-02T03:40:25.823Z,2.50
2018-01-02T03:42:54.005Z,4.10
2018-01-02T03:45:22.960Z,2.37
2018-01-02T03:47:51.110Z,2.57
2018-01-02T03:50:19.293Z,3.30
2018-01-02T03:52:47.447Z,3.13
2018-01-02T03:55:15.628Z,4.33
2018-01-02T03:57:43.793Z,4.67
2018-01-02T04:00:11.986Z,5.23
2018-01-02T04:02:40.169Z,4.07
2018-01-02T04:05:08.356Z,6.40
2018-01-02T04:07:36.979Z,3.20
2018-01-02T04:10:05.141Z,3.70
2018-01-02T04:12:33.361Z,2.40
2018-01-02T04:15:02.228Z,3.17
2018-01-02T04:17:30.485Z,4.00
2018-01-02T04:19:59.427Z,4.30
2018-01-02T04:22:27.612Z,3.80
2018-01-02T04:24:55.752Z,3.20
2018-01-02T04:27:23.919Z,5.87
2018-01-02T04:29:52.061Z,3.60
2018-01-02T04:32:20.994Z,2.80
2018-01-02T04:34:49.141Z,2.20
2018-01-02T04:37:17.338Z,2.90
2018-01-02T04:39:45.483Z,2.20
2018-01-02T04:42:13.695Z,2.83
2018-01-02T04:44:41.872Z,2.50
2018-01-02T04:47:10.031Z,2.40
2018-01-02T04:49:38.182Z,2.43
2018-01-02T04:52:07.116Z,2.33
2018-01-02T04:54:35.264Z,3.07
2018-01-02T04:57:03.435Z,3.07
2018-01-02T04:59:31.605Z,5.00
2018-01-02T05:02:00.528Z,4.15
2018-01-02T05:04:28.666Z,3.67
2018-01-02T05:06:57.602Z,2.40
2018-01-02T05:09:25.759Z,3.13
2018-01-02T05:11:53.944Z,3.10
2018-01-02T05:14:22.093Z,4.23
2018-01-02T05:16:50.279Z,9.93
2018-01-02T05:19:18.426Z,4.93
2018-01-02T05:21:47.353Z,5.73
2018-01-02T05:24:15.508Z,4.33
2018-01-02T05:26:43.699Z,6.30
2018-01-02T05:29:11.853Z,5.93
2018-01-02T05:31:40.041Z,8.40
2018-01-02T05:34:08.194Z,5.80
2018-01-02T05:36:36.378Z,6.77
2018-01-02T05:39:04.524Z,5.93
2018-01-02T05:41:33.449Z,5.30
2018-01-02T05:44:01.600Z,6.07
2018-01-02T05:46:30.546Z,10.13
2018-01-02T05:48:58.682Z,8.77
2018-01-02T05:51:26.867Z,4.63
2018-01-02T05:53:55.337Z,9.10
2018-01-02T05:56:23.507Z,10.03
2018-01-02T05:58:51.651Z,8.50
2018-01-02T06:01:20.611Z,10.27
2018-01-02T06:03:48.760Z,7.90
2018-01-02T06:06:16.924Z,7.57
2018-01-02T06:08:45.826Z,5.83
2018-01-02T06:11:13.989Z,5.37
2018-01-02T06:13:42.137Z,5.87
2018-01-02T06:16:11.066Z,5.93
2018-01-02T06:18:39.223Z,6.67
2018-01-02T06:21:08.166Z,7.23
2018-01-02T06:23:36.773Z,6.90
2018-01-02T06:26:05.706Z,5.20
2018-01-02T06:28:34.862Z,6.50
2018-01-02T06:31:03.484Z,7.77
2018-01-02T06:33:31.661Z,4.77
2018-01-02T06:35:59.795Z,8.83
2018-01-02T06:38:28.464Z,6.30
2018-01-02T06:40:57.585Z,7.57
2018-01-02T06:43:26.219Z,5.43
2018-01-02T07:03:53.788Z,11.37
2018-01-02T07:06:21.977Z,12.10
2018-01-02T07:08:50.124Z,11.03
2018-01-02T07:11:18.307Z,8.50
2018-01-02T07:13:47.322Z,8.87
2018-01-02T07:16:15.488Z,8.03
2018-01-02T07:18:43.665Z,16.67
2018-01-02T07:21:11.902Z,10.20
2018-01-02T07:23:40.848Z,12.03
2018-01-02T07:26:08.993Z,14.97
2018-01-02T07:28:37.165Z,8.87
2018-01-02T07:31:05.306Z,8.20
2018-01-02T07:33:34.296Z,14.53
2018-01-02T07:36:04.095Z,10.80
2018-01-02T07:38:32.357Z,13.93
2018-01-02T07:41:00.514Z,13.80
2018-01-02T07:43:28.726Z,13.03
2018-01-02T07:45:57.650Z,16.77
2018-01-02T07:48:25.847Z,10.73
2018-01-02T07:50:54.504Z,9.57
2018-01-02T07:53:22.693Z,9.27
2018-01-02T07:55:50.861Z,9.80
2018-01-02T07:58:19.041Z,11.00
2018-01-02T08:00:47.194Z,11.33
2018-01-02T08:03:16.133Z,10.53
2018-01-02T08:05:44.288Z,11.83
2018-01-02T08:08:12.458Z,10.87
2018-01-02T08:10:40.623Z,12.23
2018-01-02T08:13:08.809Z,9.13
2018-01-02T08:15:36.976Z,7.10
2018-01-02T08:18:05.150Z,10.43
2018-01-02T08:20:33.318Z,9.67
2018-01-02T08:23:01.623Z,10.13
2018-01-02T08:25:29.840Z,11.07
2018-01-02T08:27:58.779Z,13.73
2018-01-02T08:30:26.932Z,10.17
2018-01-02T08:32:55.113Z,6.17
2018-01-02T08:35:23.261Z,7.70
2018-01-02T08:37:52.217Z,12.00
2018-01-02T08:40:20.394Z,8.67
2018-01-02T08:42:48.566Z,8.60
2018-01-02T08:45:16.721Z,11.50
2018-01-02T08:47:44.921Z,15.20
2018-01-02T08:50:13.072Z,10.90
2018-01-02T08:52:41.249Z,18.50
2018-01-02T08:55:09.416Z,12.33
2018-01-02T08:57:37.592Z,12.90
2018-01-02T09:00:05.833Z,11.43
2018-01-02T09:02:39.031Z,14.07
2018-01-02T09:05:07.184Z,17.37
2018-01-02T09:07:36.148Z,13.40
2018-01-02T09:10:04.646Z,15.47
2018-01-02T09:12:38.416Z,15.27
2018-01-02T09:15:06.558Z,16.47
2018-01-02T09:17:34.738Z,11.73
2018-01-02T09:20:02.881Z,12.87
2018-01-02T09:22:31.834Z,14.87
2018-01-02T09:24:59.989Z,15.63
2018-01-02T09:27:28.166Z,16.33
2018-01-02T09:29:56.379Z,12.17
2018-01-02T09:32:24.529Z,15.23
2018-01-02T09:34:52.699Z,12.77
2018-01-02T09:37:21.669Z,13.73
2018-01-02T09:39:49.838Z,11.57
2018-01-02T09:42:18.004Z,11.57
2018-01-02T09:44:46.942Z,13.40
2018-01-02T09:47:15.095Z,16.47
2018-01-02T09:49:43.263Z,12.23
2018-01-02T09:52:11.473Z,14.57
2018-01-02T09:54:39.660Z,19.43
2018-01-02T09:57:07.886Z,17.57
2018-01-02T09:59:36.209Z,17.60
2018-01-02T10:02:04.359Z,14.50
2018-01-02T10:04:32.572Z,13.70
2018-01-02T10:07:00.710Z,14.20
2018-01-02T10:09:28.993Z,17.43
2018-01-02T10:11:57.192Z,20.00
2018-01-02T10:14:25.394Z,20.00
2018-01-02T10:16:53.546Z,17.73
2018-01-02T10:19:22.505Z,25.03
2018-01-02T10:21:50.658Z,13.23
2018-01-02T10:24:18.836Z,19.60
2018-01-02T10:26:46.982Z,14.40
2018-01-02T10:29:15.913Z,19.30
2018-01-02T10:31:44.078Z,12.13
2018-01-02T10:34:12.353Z,13.23
2018-01-02T10:36:40.526Z,14.20
2018-01-02T10:39:08.703Z,13.13
2018-01-02T10:41:36.857Z,13.33
2018-01-02T10:44:05.214Z,14.70
2018-01-02T10:46:34.137Z,14.33
2018-01-02T10:49:02.317Z,16.53
2018-01-02T10:51:30.491Z,14.47
2018-01-02T10:53:58.666Z,16.13
2018-01-02T10:56:26.817Z,17.17
2018-01-02T10:58:54.973Z,16.93
2018-01-02T11:01:27.925Z,18.90
2018-01-02T11:03:56.113Z,15.73
2018-01-02T11:06:24.252Z,15.27
2018-01-02T11:08:52.441Z,13.63
2018-01-02T11:11:20.600Z,38.23
2018-01-02T11:13:48.790Z,18.63
2018-01-02T11:16:16.937Z,15.47
2018-01-02T11:18:45.881Z,17.60
2018-01-02T11:21:14.033Z,19.27
2018-01-02T11:23:42.223Z,22.63
2018-01-02T11:26:10.380Z,24.70
2018-01-02T11:28:38.590Z,16.87
2018-01-02T11:31:07.492Z,18.83
2018-01-02T11:33:35.678Z,18.43
2018-01-02T11:36:04.385Z,15.23
2018-01-02T11:38:32.634Z,21.57
2018-01-02T11:41:00.793Z,20.80
2018-01-02T11:43:29.739Z,14.70
2018-01-02T11:45:58.388Z,28.30
2018-01-02T11:48:26.584Z,22.40
2018-01-02T11:50:54.757Z,19.37
2018-01-02T11:53:22.938Z,19.50
2018-01-02T11:55:51.098Z,24.80
2018-01-02T11:58:19.251Z,16.80
2018-01-02T12:00:47.427Z,25.57
2018-01-02T12:03:15.598Z,18.57
2018-01-02T12:05:43.785Z,18.80
2018-01-02T12:08:11.978Z,18.50
2018-01-02T12:10:40.183Z,16.87
2018-01-02T12:13:08.356Z,15.40
2018-01-02T12:15:36.542Z,15.33
2018-01-02T12:18:04.685Z,17.87
2018-01-02T12:20:32.858Z,16.50
2018-01-02T12:23:01.004Z,13.53
2018-01-02T12:25:29.239Z,11.50
2018-01-02T12:27:57.477Z,14.43
2018-01-02T12:30:25.729Z,17.17
2018-01-02T12:32:53.977Z,14.57
2018-01-02T12:35:22.910Z,15.83
2018-01-02T12:37:51.060Z,19.57
2018-01-02T12:40:19.249Z,24.07
2018-01-02T12:42:47.411Z,14.67
2018-01-02T12:45:15.609Z,28.87
2018-01-02T12:47:43.775Z,38.03
2018-01-02T12:50:11.953Z,38.17
2018-01-02T12:52:40.146Z,57.40
2018-01-02T12:55:08.321Z,55.87
2018-01-02T12:57:36.476Z,44.47
2018-01-02T13:00:04.659Z,47.73
2018-01-02T13:02:37.705Z,27.07
2018-01-02T13:05:06.650Z,19.17
2018-01-02T13:07:34.818Z,21.27
2018-01-02T13:10:03.743Z,17.67
2018-01-02T13:12:31.910Z,22.87
2018-01-02T13:15:00.899Z,16.80
2018-01-02T13:17:29.055Z,15.63
2018-01-02T13:19:57.242Z,14.87
2018-01-02T13:22:25.450Z,14.80
2018-01-02T13:24:53.763Z,16.20
2018-01-02T13:27:21.905Z,15.47
2018-01-02T13:29:51.278Z,14.63
2018-01-02T13:32:19.490Z,11.97
2018-01-02T13:34:48.060Z,15.47
2018-01-02T13:37:16.241Z,11.40
2018-01-02T13:39:44.425Z,7.57
2018-01-02T13:42:12.625Z,11.90
2018-01-02T13:44:40.829Z,10.47
2018-01-02T13:47:08.977Z,9.50
2018-01-02T13:49:37.182Z,6.77
2018-01-02T13:52:06.157Z,7.57
2018-01-02T13:54:34.329Z,8.13
2018-01-02T13:57:02.818Z,11.57
2018-01-02T13:59:31.438Z,9.43
2018-01-02T14:01:59.972Z,10.33
2018-01-02T14:04:28.281Z,8.50
2018-01-02T14:06:56.455Z,8.90
2018-01-02T14:09:24.941Z,12.00
2018-01-02T14:11:53.491Z,11.67
2018-01-02T14:14:21.875Z,10.50
2018-01-02T14:16:50.125Z,5.83
2018-01-02T14:19:18.284Z,8.53
2018-01-02T14:21:46.446Z,10.30
2018-01-02T14:24:15.354Z,8.93
2018-01-02T14:26:43.535Z,11.73
2018-01-02T14:29:11.685Z,8.33
2018-01-02T14:31:39.910Z,10.87
2018-01-02T14:34:08.143Z,9.73
2018-01-02T14:36:37.074Z,17.07
2018-01-02T14:39:05.237Z,8.93
2018-01-02T14:41:33.407Z,7.90
2018-01-02T14:44:02.323Z,8.00
2018-01-02T14:46:30.611Z,9.43
2018-01-02T14:48:58.762Z,18.10
2018-01-02T14:51:26.926Z,10.80
2018-01-02T14:53:55.081Z,8.83
2018-01-02T14:56:23.327Z,10.47
2018-01-02T14:58:52.245Z,11.47
2018-01-02T15:01:20.422Z,19.03
2018-01-02T15:03:48.589Z,10.27
2018-01-02T15:06:17.551Z,7.70
2018-01-02T15:08:46.507Z,7.70
2018-01-02T15:11:14.673Z,10.00
2018-01-02T15:13:42.809Z,10.30
2018-01-02T15:16:11.754Z,10.93
2018-01-02T15:18:39.909Z,11.30
2018-01-02T15:21:08.103Z,10.20
2018-01-02T15:23:36.268Z,13.13
2018-01-02T15:26:04.437Z,11.70
2018-01-02T15:28:32.577Z,15.93
2018-01-02T15:31:01.510Z,10.70
2018-01-02T15:33:29.667Z,13.73
2018-01-02T15:35:57.837Z,11.00
2018-01-02T15:38:25.985Z,9.13
2018-01-02T15:40:54.923Z,18.37
2018-01-02T15:43:23.084Z,14.10
2018-01-02T15:45:52.052Z,15.27
2018-01-02T15:48:20.227Z,15.97
2018-01-02T15:50:48.434Z,16.30
2018-01-02T15:53:16.594Z,30.50
2018-01-02T15:55:44.775Z,42.60
2018-01-02T15:58:12.927Z,37.73
2018-01-02T16:00:41.123Z,50.40
2018-01-02T16:03:09.271Z,15.10
2018-01-02T16:05:37.454Z,14.00
2018-01-02T16:08:06.316Z,11.97
2018-01-02T16:10:34.713Z,9.27
2018-01-02T16:13:02.926Z,65.90
2018-01-02T16:15:31.124Z,36.73
2018-01-02T16:17:59.298Z,17.53
2018-01-02T16:20:27.817Z,9.50
2018-01-02T16:22:58.186Z,9.10
2018-01-02T16:25:27.191Z,64.40
2018-01-02T16:27:55.359Z,24.30
2018-01-02T16:30:23.573Z,14.00
2018-01-02T16:32:52.545Z,19.80
2018-01-02T16:35:20.765Z,15.17
2018-01-02T16:37:49.139Z,12.53
2018-01-02T16:40:18.450Z,14.00
2018-01-02T16:42:46.779Z,21.00
2018-01-02T16:45:14.967Z,19.30
2018-01-02T16:47:44.127Z,11.37
2018-01-02T16:50:12.338Z,9.73
2018-01-02T16:52:40.596Z,11.73
2018-01-02T16:55:08.766Z,12.47
2018-01-02T16:57:37.859Z,9.73
2018-01-02T17:00:06.040Z,11.30
2018-01-02T17:02:39.110Z,11.37
2018-01-02T17:05:07.261Z,10.57
2018-01-02T17:07:35.430Z,16.50
2018-01-02T17:10:04.332Z,15.00
2018-01-02T17:12:32.514Z,16.27
2018-01-02T17:15:00.715Z,11.07
2018-01-02T17:17:29.889Z,11.73
2018-01-02T17:19:58.080Z,12.63
2018-01-02T17:22:26.311Z,14.87
2018-01-02T17:24:54.432Z,13.33
2018-01-02T17:27:22.598Z,15.50
2018-01-02T17:29:50.773Z,12.60
2018-01-02T17:32:18.952Z,9.40
2018-01-02T17:34:47.116Z,11.30
2018-01-02T17:37:15.277Z,11.30
2018-01-02T17:39:43.658Z,10.80
2018-01-02T17:42:13.902Z,16.97
2018-01-02T17:44:42.052Z,10.47
2018-01-02T17:47:10.396Z,8.00
2018-01-02T17:49:38.552Z,8.40
2018-01-02T17:52:06.716Z,10.90
2018-01-02T17:54:34.869Z,11.80
2018-01-02T17:57:03.046Z,9.37
2018-01-02T17:59:31.573Z,9.97
2018-01-02T18:01:59.781Z,9.00
2018-01-02T18:04:27.953Z,11.13
2018-01-02T18:06:56.152Z,9.70
2018-01-02T18:09:24.407Z,8.63
2018-01-02T18:11:53.550Z,12.27
2018-01-02T18:14:25.327Z,9.93
2018-01-02T18:16:53.782Z,9.13
2018-01-02T18:19:22.650Z,9.47
2018-01-02T18:21:50.818Z,14.67
2018-01-02T18:24:19.105Z,11.30
2018-01-02T18:26:47.278Z,9.30
2018-01-02T18:29:15.603Z,10.93
2018-01-02T18:31:45.260Z,17.33
2018-01-02T18:34:17.008Z,14.13
2018-01-02T18:36:46.623Z,12.90
2018-01-02T18:39:16.212Z,14.27
2018-01-02T18:41:44.738Z,12.40
2018-01-02T18:44:13.033Z,10.57
2018-01-02T18:46:41.242Z,17.90
2018-01-02T18:49:10.237Z,12.87
2018-01-02T18:51:38.428Z,12.90
2018-01-02T18:54:07.006Z,9.70
2018-01-02T18:56:35.959Z,10.40
2018-01-02T18:59:04.441Z,20.03
2018-01-02T19:01:32.737Z,10.33
2018-01-02T19:04:01.278Z,12.47
2018-01-02T19:06:29.497Z,10.03
2018-01-02T19:08:57.827Z,19.43
2018-01-02T19:11:26.076Z,9.07
2018-01-02T19:13:55.176Z,11.23
2018-01-02T19:16:23.383Z,13.60
2018-01-02T19:18:51.527Z,11.50
2018-01-02T19:21:20.459Z,9.27
2018-01-02T19:23:48.628Z,11.57
2018-01-02T19:26:18.657Z,12.13
2018-01-02T19:28:46.947Z,11.73
2018-01-02T19:31:17.150Z,17.10
2018-01-02T19:33:45.676Z,21.47
2018-01-02T19:36:14.672Z,14.00
2018-01-02T19:38:43.130Z,13.47
2018-01-02T19:41:11.329Z,16.10
2018-01-02T19:43:40.493Z,19.57
2018-01-02T19:46:08.701Z,18.90
2018-01-02T19:48:37.189Z,20.47
2018-01-02T19:51:06.138Z,15.03
2018-01-02T19:53:36.033Z,14.63
2018-01-02T19:56:05.842Z,14.27
2018-01-02T19:58:35.163Z,22.43
2018-01-02T20:01:03.846Z,13.13
2018-01-02T20:03:32.961Z,12.93
2018-01-02T20:06:01.697Z,12.90
2018-01-02T20:08:32.517Z,19.10
2018-01-02T20:11:01.713Z,14.20
2018-01-02T20:13:31.978Z,13.90
2018-01-02T20:16:00.889Z,17.03
2018-01-02T20:18:34.707Z,14.83
2018-01-02T20:21:03.447Z,14.23
2018-01-02T20:23:32.578Z,15.70
2018-01-02T20:26:00.730Z,14.33
2018-01-02T20:28:28.959Z,16.47
2018-01-02T20:30:57.124Z,11.13
2018-01-02T20:33:25.294Z,11.20
2018-01-02T20:35:53.438Z,11.00
2018-01-02T20:38:21.614Z,10.50
2018-01-02T20:40:49.767Z,15.93
2018-01-02T20:43:18.702Z,11.67
2018-01-02T20:45:47.034Z,12.17
2018-01-02T20:48:15.672Z,11.07
2018-01-02T20:50:44.047Z,11.73
2018-01-02T20:53:12.264Z,13.50
2018-01-02T20:55:41.175Z,11.23
2018-01-02T20:58:10.117Z,12.00
2018-01-02T21:00:38.720Z,8.83
2018-01-02T21:03:06.882Z,12.53
2018-01-02T21:05:35.037Z,7.20
2018-01-02T21:08:03.658Z,8.83
2018-01-02T21:10:32.248Z,7.17
2018-01-02T21:13:00.447Z,10.77
2018-01-02T21:15:28.596Z,15.00
2018-01-02T21:17:57.545Z,12.40
2018-01-02T21:20:25.697Z,11.37
2018-01-02T21:22:53.853Z,10.37
2018-01-02T21:25:22.020Z,6.60
2018-01-02T21:27:50.235Z,16.90
2018-01-02T21:30:18.387Z,10.40
2018-01-02T21:32:46.556Z,7.57
2018-01-02T21:35:14.709Z,10.27
2018-01-02T21:37:43.796Z,15.73
2018-01-02T21:40:11.975Z,21.80
2018-01-02T21:42:40.969Z,10.80
2018-01-02T21:45:09.136Z,8.43
2018-01-02T21:47:37.422Z,7.27
2018-01-02T21:50:06.343Z,11.57
2018-01-02T21:52:34.529Z,8.33
2018-01-02T21:55:03.032Z,9.80
2018-01-02T21:57:31.290Z,8.20
2018-01-02T21:59:59.460Z,16.23
2018-01-02T22:02:27.639Z,14.07
2018-01-02T22:04:55.808Z,19.07
2018-01-02T22:07:23.986Z,12.90
2018-01-02T22:09:52.141Z,8.43
2018-01-02T22:12:20.339Z,19.13
2018-01-02T22:14:48.558Z,15.50
2018-01-02T22:17:17.495Z,16.13
2018-01-02T22:19:45.714Z,7.83
2018-01-02T22:22:13.860Z,10.03
2018-01-02T22:24:42.039Z,21.37
2018-01-02T22:27:10.214Z,18.83
2018-01-02T22:29:38.860Z,17.67
2018-01-02T22:32:07.764Z,9.57
2018-01-02T22:34:35.938Z,14.57
2018-01-02T22:37:04.090Z,10.30
2018-01-02T22:39:33.066Z,12.60
2018-01-02T22:42:02.265Z,11.83
2018-01-02T22:44:30.473Z,18.67
2018-01-02T22:46:58.616Z,7.13
2018-01-02T22:49:27.574Z,8.93
2018-01-02T22:51:55.746Z,13.43
2018-01-02T22:54:23.941Z,12.90
2018-01-02T22:56:53.021Z,9.00
2018-01-02T22:59:21.209Z,9.70
2018-01-02T23:01:49.366Z,9.63
2018-01-02T23:04:17.542Z,10.53
2018-01-02T23:06:45.685Z,13.80
2018-01-02T23:09:13.855Z,5.90
2018-01-02T23:11:42.176Z,18.20
2018-01-02T23:14:10.433Z,8.57
2018-01-02T23:16:38.609Z,9.73
2018-01-02T23:19:06.850Z,9.50
2018-01-02T23:21:35.020Z,7.80
2018-01-02T23:24:03.933Z,9.90
2018-01-02T23:26:32.918Z,7.70
2018-01-02T23:29:01.088Z,10.93
2018-01-02T23:31:29.676Z,10.00
2018-01-02T23:33:57.857Z,7.63
2018-01-02T23:36:26.007Z,6.80
2018-01-02T23:38:54.960Z,11.67
2018-01-02T23:41:23.126Z,9.87
2018-01-02T23:43:51.331Z,12.80
2018-01-02T23:46:19.447Z,7.53
2018-01-02T23:48:47.641Z,10.47
2018-01-02T23:51:15.813Z,7.93
2018-01-02T23:53:43.998Z,9.03
2018-01-02T23:56:12.133Z,9.87
2018-01-02T23:58:40.294Z,9.33
